createdAt,value
2019-02-16T00:01:09.085Z,11.71
2019-02-16T00:03:36.246Z,12.07
2019-02-16T00:06:03.136Z,12.14
2019-02-16T00:08:30.789Z,11.98
2019-02-16T00:10:58.830Z,11.64
2019-02-16T00:13:25.853Z,11.05
2019-02-16T00:15:52.810Z,10.73
2019-02-16T00:18:19.696Z,10.63
2019-02-16T00:20:46.600Z,10.41
2019-02-16T00:23:13.866Z,10.37
2019-02-16T00:25:41.141Z,10.10
2019-02-16T00:28:08.078Z,10.23
2019-02-16T00:30:34.996Z,9.93
2019-02-16T00:33:02.255Z,10.18
2019-02-16T00:35:29.250Z,10.24
2019-02-16T00:37:56.555Z,10.17
2019-02-16T00:40:23.802Z,10.16
2019-02-16T00:42:50.714Z,9.80
2019-02-16T00:45:17.658Z,9.51
2019-02-16T00:47:44.624Z,9.17
2019-02-16T00:50:11.598Z,9.40
2019-02-16T00:52:38.573Z,9.54
2019-02-16T00:55:05.611Z,9.19
2019-02-16T00:57:32.941Z,9.37
2019-02-16T00:59:59.824Z,9.24
2019-02-16T01:02:26.776Z,9.02
2019-02-16T01:04:54.990Z,9.04
2019-02-16T01:07:21.877Z,9.29
2019-02-16T01:09:49.106Z,9.05
2019-02-16T01:12:16.407Z,9.15
2019-02-16T01:14:43.333Z,9.18
2019-02-16T01:17:10.665Z,9.16
2019-02-16T01:19:37.614Z,8.88
2019-02-16T01:22:04.846Z,8.89
2019-02-16T01:24:31.752Z,9.25
2019-02-16T01:26:58.703Z,9.09
2019-02-16T01:29:25.620Z,8.80
2019-02-16T01:31:52.950Z,8.65
2019-02-16T01:34:19.918Z,8.76
2019-02-16T01:36:47.134Z,8.92
2019-02-16T01:39:14.706Z,8.76
2019-02-16T01:41:41.668Z,8.73
2019-02-16T01:44:08.627Z,8.83
2019-02-16T01:46:35.558Z,8.95
2019-02-16T01:49:02.445Z,9.35
2019-02-16T01:51:31.826Z,9.17
2019-02-16T01:53:57.932Z,8.65
2019-02-16T01:56:25.168Z,9.11
2019-02-16T01:58:52.060Z,8.94
2019-02-16T02:01:19.376Z,8.72
2019-02-16T02:03:47.253Z,8.71
2019-02-16T02:06:14.132Z,8.88
2019-02-16T02:08:41.343Z,8.57
2019-02-16T02:11:08.313Z,8.87
2019-02-16T02:13:35.273Z,8.46
2019-02-16T02:16:02.498Z,8.05
2019-02-16T02:18:29.404Z,8.12
2019-02-16T02:20:56.269Z,8.51
2019-02-16T02:23:23.160Z,8.06
2019-02-16T02:25:50.117Z,8.52
2019-02-16T02:28:17.026Z,8.49
2019-02-16T02:30:44.368Z,8.41
2019-02-16T02:33:11.303Z,8.59
2019-02-16T02:35:38.544Z,9.00
2019-02-16T02:38:05.705Z,9.25
2019-02-16T02:40:32.589Z,9.25
2019-02-16T02:42:59.534Z,8.61
2019-02-16T02:45:26.504Z,8.27
2019-02-16T02:47:53.371Z,8.58
2019-02-16T02:50:20.321Z,8.77
2019-02-16T02:52:47.198Z,8.78
2019-02-16T02:55:14.172Z,8.98
2019-02-16T02:57:41.116Z,9.00
2019-02-16T03:00:08.061Z,8.52
2019-02-16T03:02:35.029Z,9.00
2019-02-16T03:05:01.994Z,9.22
2019-02-16T03:07:29.066Z,9.47
2019-02-16T03:09:56.400Z,9.64
2019-02-16T03:12:23.265Z,9.84
2019-02-16T03:14:50.149Z,9.64
2019-02-16T03:17:17.108Z,9.12
2019-02-16T03:19:44.288Z,8.88
2019-02-16T03:22:11.440Z,8.63
2019-02-16T03:24:38.386Z,8.85
2019-02-16T03:27:05.245Z,8.65
2019-02-16T03:29:32.170Z,8.65
2019-02-16T03:31:59.122Z,9.21
2019-02-16T03:34:26.470Z,8.95
2019-02-16T03:36:53.415Z,8.68
2019-02-16T03:39:20.562Z,8.59
2019-02-16T03:41:48.059Z,8.73
2019-02-16T03:44:15.085Z,8.68
2019-02-16T03:46:42.349Z,8.59
2019-02-16T03:49:09.288Z,8.36
2019-02-16T03:51:36.274Z,8.37
2019-02-16T03:54:03.194Z,8.16
2019-02-16T03:56:30.417Z,8.42
2019-02-16T03:58:57.301Z,8.61
2019-02-16T04:01:24.238Z,8.48
2019-02-16T04:03:51.178Z,8.45
2019-02-16T04:06:18.394Z,8.30
2019-02-16T04:08:45.555Z,8.23
2019-02-16T04:11:12.459Z,8.13
2019-02-16T04:13:39.408Z,7.69
2019-02-16T04:16:06.289Z,7.95
2019-02-16T04:18:34.562Z,8.13
2019-02-16T04:21:01.481Z,8.00
2019-02-16T04:23:28.444Z,7.88
2019-02-16T04:25:55.829Z,8.10
2019-02-16T04:28:22.780Z,8.16
2019-02-16T04:30:49.722Z,8.46
2019-02-16T04:33:16.613Z,8.36
2019-02-16T04:35:43.559Z,8.47
2019-02-16T04:38:10.521Z,8.83
2019-02-16T04:40:37.790Z,9.53
2019-02-16T04:43:04.674Z,10.29
2019-02-16T04:45:31.546Z,10.42
2019-02-16T04:47:58.722Z,10.09
2019-02-16T04:50:25.620Z,10.62
2019-02-16T04:52:52.576Z,10.61
2019-02-16T04:55:22.444Z,10.52
2019-02-16T04:57:49.398Z,10.97
2019-02-16T05:00:16.320Z,10.38
2019-02-16T05:02:43.297Z,10.63
2019-02-16T05:05:10.262Z,11.03
2019-02-16T05:07:37.217Z,10.94
2019-02-16T05:10:04.084Z,10.32
2019-02-16T05:12:30.966Z,10.17
2019-02-16T05:14:57.828Z,10.68
2019-02-16T05:17:24.732Z,11.07
2019-02-16T05:19:52.013Z,11.22
2019-02-16T05:22:19.241Z,10.51
2019-02-16T05:24:46.401Z,10.35
2019-02-16T05:27:13.659Z,10.10
2019-02-16T05:29:40.549Z,9.72
2019-02-16T05:32:07.521Z,9.66
2019-02-16T05:34:34.467Z,9.50
2019-02-16T05:37:01.337Z,9.42
2019-02-16T05:39:28.224Z,9.64
2019-02-16T05:41:55.184Z,9.43
2019-02-16T05:44:22.240Z,9.27
2019-02-16T05:46:49.428Z,8.93
2019-02-16T05:49:16.314Z,9.05
2019-02-16T05:51:43.189Z,9.09
2019-02-16T05:54:10.084Z,8.82
2019-02-16T05:56:37.119Z,8.88
2019-02-16T05:59:04.353Z,9.01
2019-02-16T06:01:31.573Z,9.10
2019-02-16T06:03:58.599Z,9.37
2019-02-16T06:06:25.471Z,9.22
2019-02-16T06:08:52.372Z,9.21
2019-02-16T06:11:19.304Z,9.13
2019-02-16T06:13:46.221Z,9.24
2019-02-16T06:16:13.078Z,9.40
2019-02-16T06:18:40.347Z,9.17
2019-02-16T06:21:07.318Z,9.05
2019-02-16T06:23:34.290Z,9.00
2019-02-16T06:26:01.277Z,9.02
2019-02-16T06:28:28.230Z,9.17
2019-02-16T06:30:55.195Z,9.44
2019-02-16T06:33:22.156Z,9.33
2019-02-16T06:35:49.129Z,9.17
2019-02-16T06:38:16.507Z,9.35
2019-02-16T06:40:43.444Z,9.31
2019-02-16T06:43:10.425Z,9.34
2019-02-16T06:45:37.370Z,9.60
2019-02-16T06:48:04.355Z,10.11
2019-02-16T06:50:36.902Z,9.84
2019-02-16T06:53:00.250Z,9.79
2019-02-16T06:55:27.197Z,9.92
2019-02-16T06:57:54.096Z,9.75
2019-02-16T07:00:21.380Z,10.11
2019-02-16T07:02:48.362Z,10.32
2019-02-16T07:05:15.713Z,10.40
2019-02-16T07:07:42.922Z,10.37
2019-02-16T07:10:09.818Z,10.70
2019-02-16T07:12:37.133Z,10.60
2019-02-16T07:15:04.409Z,10.34
2019-02-16T07:17:31.350Z,10.29
2019-02-16T07:19:58.575Z,9.99
2019-02-16T07:22:25.555Z,10.12
2019-02-16T07:24:52.433Z,10.09
2019-02-16T07:27:19.377Z,10.67
2019-02-16T07:29:46.709Z,11.20
2019-02-16T07:32:13.975Z,11.44
2019-02-16T07:34:41.077Z,11.07
2019-02-16T07:37:08.292Z,10.99
2019-02-16T07:39:35.492Z,10.85
2019-02-16T07:42:02.380Z,10.91
2019-02-16T07:44:29.317Z,11.19
2019-02-16T07:46:56.199Z,11.33
2019-02-16T07:49:23.472Z,11.39
2019-02-16T07:51:50.734Z,11.69
2019-02-16T07:54:17.966Z,11.84
2019-02-16T07:56:45.235Z,12.00
2019-02-16T07:59:12.602Z,12.46
2019-02-16T08:01:39.580Z,12.72
2019-02-16T08:04:06.905Z,12.32
2019-02-16T08:06:33.874Z,12.14
2019-02-16T08:09:01.083Z,12.34
2019-02-16T08:11:29.978Z,12.77
2019-02-16T08:13:58.164Z,11.69
2019-02-16T08:16:25.510Z,11.21
2019-02-16T08:18:52.454Z,11.69
2019-02-16T08:21:19.806Z,12.07
2019-02-16T08:23:46.725Z,11.21
2019-02-16T08:26:14.005Z,11.38
2019-02-16T08:28:41.477Z,11.56
2019-02-16T08:31:08.701Z,11.70
2019-02-16T08:33:35.837Z,11.60
2019-02-16T08:36:03.009Z,11.64
2019-02-16T08:38:30.268Z,11.51
2019-02-16T08:40:57.536Z,11.95
2019-02-16T08:43:24.805Z,11.67
2019-02-16T08:45:52.024Z,12.60
2019-02-16T08:48:20.105Z,12.81
2019-02-16T08:50:47.047Z,12.95
2019-02-16T08:53:14.315Z,12.23
2019-02-16T08:55:42.146Z,13.38
2019-02-16T08:58:09.095Z,12.92
2019-02-16T09:00:36.246Z,12.72
2019-02-16T09:03:03.410Z,12.64
2019-02-16T09:05:40.321Z,12.46
2019-02-16T09:08:07.278Z,12.35
2019-02-16T09:10:34.161Z,12.19
2019-02-16T09:13:03.118Z,13.23
2019-02-16T09:15:30.064Z,12.94
2019-02-16T09:17:57.015Z,13.73
2019-02-16T09:20:24.000Z,13.84
2019-02-16T09:22:51.264Z,13.51
2019-02-16T09:25:18.146Z,13.76
2019-02-16T09:27:45.360Z,13.88
2019-02-16T09:30:12.273Z,13.68
2019-02-16T09:32:39.226Z,13.41
2019-02-16T09:35:06.195Z,13.86
2019-02-16T09:37:33.349Z,13.13
2019-02-16T09:40:00.611Z,13.24
2019-02-16T09:42:27.627Z,13.57
2019-02-16T09:44:55.277Z,13.14
2019-02-16T09:47:22.765Z,12.99
2019-02-16T09:49:50.019Z,12.71
2019-02-16T09:52:16.977Z,12.76
2019-02-16T09:54:43.869Z,12.48
2019-02-16T09:57:10.831Z,13.46
2019-02-16T09:59:37.786Z,13.84
2019-02-16T10:02:04.677Z,13.09
2019-02-16T10:04:31.643Z,14.00
2019-02-16T10:06:58.497Z,13.78
2019-02-16T10:09:25.399Z,12.91
2019-02-16T10:11:52.735Z,13.76
2019-02-16T10:14:19.631Z,14.11
2019-02-16T10:16:46.557Z,14.07
2019-02-16T10:19:13.766Z,13.97
2019-02-16T10:21:41.023Z,14.79
2019-02-16T10:24:07.918Z,14.33
2019-02-16T10:26:35.230Z,14.37
2019-02-16T10:29:02.597Z,14.54
2019-02-16T10:31:29.830Z,13.78
2019-02-16T10:33:56.716Z,14.16
2019-02-16T10:36:23.932Z,14.26
2019-02-16T10:38:50.893Z,14.14
2019-02-16T10:41:18.258Z,13.74
2019-02-16T10:43:45.180Z,13.84
2019-02-16T10:46:12.397Z,13.90
2019-02-16T10:48:39.348Z,14.29
2019-02-16T10:51:06.744Z,14.00
2019-02-16T10:53:33.618Z,14.56
2019-02-16T10:56:00.821Z,14.45
2019-02-16T10:58:28.089Z,14.05
2019-02-16T11:00:55.334Z,14.08
2019-02-16T11:03:22.597Z,14.60
2019-02-16T11:05:49.863Z,15.01
2019-02-16T11:08:16.823Z,15.88
2019-02-16T11:10:44.150Z,16.18
2019-02-16T11:13:11.155Z,15.82
2019-02-16T11:15:38.173Z,16.13
2019-02-16T11:18:05.205Z,16.18
2019-02-16T11:20:32.325Z,16.30
2019-02-16T11:22:59.281Z,16.61
2019-02-16T11:25:26.285Z,15.73
2019-02-16T11:27:53.698Z,16.57
2019-02-16T11:30:21.082Z,16.24
2019-02-16T11:32:48.092Z,16.68
2019-02-16T11:35:16.174Z,16.48
2019-02-16T11:37:43.137Z,16.28
2019-02-16T11:40:11.479Z,16.32
2019-02-16T11:42:38.740Z,16.81
2019-02-16T11:45:06.784Z,16.56
2019-02-16T11:47:34.065Z,16.71
2019-02-16T11:50:01.305Z,16.67
2019-02-16T11:52:28.289Z,16.49
2019-02-16T11:54:55.211Z,16.44
2019-02-16T11:57:22.387Z,16.05
2019-02-16T11:59:49.770Z,16.49
2019-02-16T12:02:17.063Z,16.08
2019-02-16T12:04:43.966Z,16.06
2019-02-16T12:07:10.860Z,16.01
2019-02-16T12:09:37.911Z,16.02
2019-02-16T12:12:05.028Z,16.40
2019-02-16T12:14:32.322Z,16.70
2019-02-16T12:16:59.569Z,16.53
2019-02-16T12:19:26.459Z,16.00
2019-02-16T12:21:53.687Z,15.68
2019-02-16T12:24:20.732Z,15.74
2019-02-16T12:26:48.029Z,15.39
2019-02-16T12:29:15.425Z,15.61
2019-02-16T12:31:42.589Z,15.83
2019-02-16T12:34:09.550Z,16.14
2019-02-16T12:36:36.886Z,15.93
2019-02-16T12:39:05.029Z,15.93
2019-02-16T12:41:33.699Z,16.23
2019-02-16T12:44:00.589Z,16.21
2019-02-16T12:46:27.532Z,15.87
2019-02-16T12:48:54.403Z,16.14
2019-02-16T12:51:21.658Z,16.22
2019-02-16T12:53:48.606Z,16.56
2019-02-16T12:56:15.600Z,15.98
2019-02-16T12:58:42.570Z,16.47
2019-02-16T13:01:09.803Z,15.69
2019-02-16T13:03:36.967Z,15.47
2019-02-16T13:06:04.059Z,15.81
2019-02-16T13:08:31.219Z,15.28
2019-02-16T13:10:58.189Z,15.61
2019-02-16T13:13:25.567Z,15.36
2019-02-16T13:15:52.926Z,15.83
2019-02-16T13:18:19.805Z,16.16
2019-02-16T13:20:47.071Z,16.16
2019-02-16T13:23:14.002Z,16.77
2019-02-16T13:25:41.930Z,16.59
2019-02-16T13:28:09.361Z,17.21
2019-02-16T13:30:36.537Z,16.99
2019-02-16T13:33:08.562Z,16.55
2019-02-16T13:35:32.505Z,16.70
2019-02-16T13:37:59.472Z,16.98
2019-02-16T13:40:26.699Z,17.42
2019-02-16T13:42:54.029Z,17.32
2019-02-16T13:45:21.401Z,17.27
2019-02-16T13:54:26.254Z,22.46
2019-02-16T13:56:53.524Z,22.71
2019-02-16T13:59:20.498Z,22.60
2019-02-16T14:01:47.956Z,22.38
2019-02-16T14:04:17.200Z,22.17
2019-02-16T14:06:44.184Z,22.08
2019-02-16T14:09:11.157Z,21.97
2019-02-16T14:11:38.098Z,21.86
2019-02-16T14:14:05.433Z,21.82
2019-02-16T14:16:32.392Z,21.79
2019-02-16T14:19:01.365Z,21.78
2019-02-16T14:21:28.593Z,21.80
2019-02-16T14:23:55.574Z,21.81
2019-02-16T14:26:24.622Z,21.82
2019-02-16T14:28:51.952Z,21.78
2019-02-16T14:31:28.049Z,21.73
2019-02-16T14:33:48.074Z,21.71
2019-02-16T14:36:15.050Z,21.67
2019-02-16T14:38:41.968Z,21.70
2019-02-16T14:41:09.043Z,21.72
2019-02-16T14:43:36.361Z,21.77
2019-02-16T14:46:03.344Z,21.79
2019-02-16T14:48:30.270Z,21.76
2019-02-16T14:50:57.337Z,21.75
2019-02-16T14:53:24.529Z,21.38
2019-02-16T14:55:54.231Z,21.77
2019-02-16T14:58:20.275Z,21.75
2019-02-16T15:00:47.260Z,21.71
2019-02-16T15:03:15.582Z,21.71
2019-02-16T15:05:42.825Z,21.70
2019-02-16T15:08:10.322Z,21.74
2019-02-16T15:10:39.936Z,21.78
2019-02-16T15:13:07.018Z,21.81
2019-02-16T15:15:34.307Z,21.86
2019-02-16T15:18:01.310Z,21.95
2019-02-16T15:21:18.627Z,22.02
2019-02-16T15:23:46.996Z,21.49
2019-02-16T15:26:14.329Z,21.28
2019-02-16T15:28:41.847Z,21.15
2019-02-16T15:31:08.909Z,21.06
2019-02-16T15:33:36.388Z,20.97
2019-02-16T15:36:03.338Z,20.88
2019-02-16T15:38:30.228Z,20.84
2019-02-16T15:40:57.548Z,20.80
2019-02-16T15:43:24.512Z,20.77
2019-02-16T15:45:51.392Z,20.76
2019-02-16T15:48:18.620Z,20.75
2019-02-16T15:50:45.935Z,20.74
2019-02-16T15:53:12.918Z,20.73
2019-02-16T15:55:40.436Z,20.68
2019-02-16T15:58:07.414Z,20.65
2019-02-16T16:00:34.387Z,20.61
2019-02-16T16:03:01.416Z,20.58
2019-02-16T16:05:28.754Z,20.53
2019-02-16T16:07:55.995Z,20.51
2019-02-16T16:10:23.013Z,20.48
2019-02-16T16:12:50.549Z,20.45
2019-02-16T16:15:18.506Z,20.40
2019-02-16T16:17:45.821Z,20.31
2019-02-16T16:20:12.739Z,20.25
2019-02-16T16:22:40.122Z,20.16
2019-02-16T16:25:07.070Z,20.11
2019-02-16T16:27:33.946Z,20.09
2019-02-16T16:30:01.164Z,20.07
2019-02-16T16:32:28.505Z,20.05
2019-02-16T16:34:55.504Z,20.03
2019-02-16T16:37:22.547Z,20.00
2019-02-16T16:39:49.430Z,19.95
2019-02-16T16:42:16.372Z,19.90
2019-02-16T16:44:43.345Z,19.83
2019-02-16T16:47:10.326Z,19.76
2019-02-16T16:49:37.926Z,19.69
2019-02-16T16:52:05.367Z,19.66
2019-02-16T16:54:34.653Z,19.58
2019-02-16T16:57:01.471Z,19.54
2019-02-16T16:59:28.422Z,19.50
2019-02-16T17:01:55.969Z,19.43
2019-02-16T17:04:23.320Z,19.35
2019-02-16T17:06:50.493Z,19.31
2019-02-16T17:09:17.704Z,19.27
2019-02-16T17:11:44.981Z,19.20
2019-02-16T17:14:11.946Z,19.15
2019-02-16T17:16:38.988Z,19.07
2019-02-16T17:19:06.242Z,19.03
2019-02-16T17:21:33.280Z,19.03
2019-02-16T17:24:00.951Z,19.04
2019-02-16T17:26:28.039Z,19.04
2019-02-16T17:28:55.420Z,18.95
2019-02-16T17:31:22.575Z,18.87
2019-02-16T17:33:49.840Z,18.85
2019-02-16T17:36:17.097Z,18.80
2019-02-16T17:38:45.021Z,18.77
2019-02-16T17:41:13.292Z,18.72
2019-02-16T17:43:40.236Z,18.70
2019-02-16T17:46:07.420Z,18.68
2019-02-16T17:48:34.302Z,18.62
2019-02-16T17:51:01.346Z,18.57
2019-02-16T17:53:28.413Z,18.52
2019-02-16T17:55:55.646Z,18.46
2019-02-16T17:58:22.616Z,18.42
2019-02-16T18:00:49.820Z,18.42
2019-02-16T18:03:17.182Z,18.44
2019-02-16T18:05:44.155Z,18.43
2019-02-16T18:08:11.391Z,18.38
2019-02-16T18:10:38.618Z,18.34
2019-02-16T18:13:05.516Z,18.28
2019-02-16T18:15:32.784Z,18.22
2019-02-16T18:17:59.879Z,18.12
2019-02-16T18:20:26.821Z,18.03
2019-02-16T18:22:56.224Z,17.96
2019-02-16T18:25:23.184Z,17.92
2019-02-16T18:27:50.414Z,17.91
2019-02-16T18:30:17.680Z,17.86
2019-02-16T18:32:44.688Z,17.81
2019-02-16T18:35:11.670Z,17.82
2019-02-16T18:37:38.764Z,17.79
2019-02-16T18:40:05.860Z,17.78
2019-02-16T18:42:33.552Z,17.76
2019-02-16T18:45:00.557Z,17.68
2019-02-16T18:47:27.582Z,17.57
2019-02-16T18:49:55.167Z,17.47
2019-02-16T18:52:22.422Z,17.39
2019-02-16T18:54:49.740Z,17.36
2019-02-16T18:57:16.820Z,17.31
2019-02-16T18:59:44.090Z,17.27
2019-02-16T19:02:11.241Z,17.20
2019-02-16T19:04:38.514Z,17.17
2019-02-16T19:07:05.739Z,17.16
2019-02-16T19:09:32.709Z,17.14
2019-02-16T19:11:59.700Z,17.16
2019-02-16T19:14:26.727Z,17.14
2019-02-16T19:16:53.958Z,17.13
2019-02-16T19:19:20.955Z,17.08
2019-02-16T19:21:48.354Z,17.08
2019-02-16T19:24:15.347Z,17.01
2019-02-16T19:26:42.580Z,16.98
2019-02-16T19:29:09.625Z,16.91
2019-02-16T19:31:36.970Z,16.88
2019-02-16T19:34:04.211Z,16.84
2019-02-16T19:36:31.554Z,16.82
2019-02-16T19:38:58.806Z,16.79
2019-02-16T19:41:26.319Z,16.80
2019-02-16T19:43:54.443Z,16.79
2019-02-16T19:46:22.476Z,16.81
2019-02-16T19:48:49.379Z,16.75
2019-02-16T19:51:16.360Z,16.68
2019-02-16T19:53:43.659Z,16.64
2019-02-16T19:56:10.950Z,16.55
2019-02-16T19:58:41.316Z,16.50
2019-02-16T20:01:08.366Z,16.48
2019-02-16T20:03:35.428Z,16.39
2019-02-16T20:06:02.412Z,16.37
2019-02-16T20:08:29.338Z,16.38
2019-02-16T20:10:56.736Z,16.37
2019-02-16T20:13:23.666Z,16.40
2019-02-16T20:15:50.883Z,16.36
2019-02-16T20:18:18.129Z,16.35
2019-02-16T20:20:45.395Z,16.34
2019-02-16T20:23:12.845Z,16.34
2019-02-16T20:25:40.199Z,16.28
2019-02-16T20:28:07.136Z,16.24
2019-02-16T20:30:34.121Z,16.18
2019-02-16T20:33:01.053Z,16.14
2019-02-16T20:35:28.054Z,16.11
2019-02-16T20:37:55.063Z,16.04
2019-02-16T20:40:22.009Z,15.99
2019-02-16T20:42:49.033Z,15.94
2019-02-16T20:45:16.262Z,15.92
2019-02-16T20:47:43.584Z,15.94
2019-02-16T20:50:10.805Z,15.95
2019-02-16T20:52:39.258Z,15.90
2019-02-16T20:55:06.531Z,15.85
2019-02-16T20:57:33.496Z,15.77
2019-02-16T21:00:00.603Z,15.70
2019-02-16T21:02:27.873Z,15.66
2019-02-16T21:04:54.875Z,15.60
2019-02-16T21:07:21.849Z,15.55
2019-02-16T21:09:49.005Z,15.54
2019-02-16T21:12:16.409Z,15.51
2019-02-16T21:14:43.577Z,15.42
2019-02-16T21:17:10.565Z,15.34
2019-02-16T21:19:37.823Z,15.28
2019-02-16T21:22:05.166Z,15.21
2019-02-16T21:24:32.530Z,15.15
2019-02-16T21:26:59.895Z,15.12
2019-02-16T21:29:27.250Z,15.06
2019-02-16T21:31:54.223Z,14.98
2019-02-16T21:34:21.191Z,14.95
2019-02-16T21:36:48.489Z,14.94
2019-02-16T21:39:15.847Z,14.90
2019-02-16T21:41:43.106Z,14.85
2019-02-16T21:44:10.463Z,14.82
2019-02-16T21:46:37.699Z,14.74
2019-02-16T21:49:04.679Z,14.73
2019-02-16T21:51:31.663Z,14.65
2019-02-16T21:53:59.099Z,14.57
2019-02-16T21:56:26.194Z,14.49
2019-02-16T21:58:55.628Z,14.42
2019-02-16T22:01:22.725Z,14.39
2019-02-16T22:03:49.678Z,14.29
2019-02-16T22:06:16.597Z,14.20
2019-02-16T22:08:44.005Z,14.20
2019-02-16T22:11:11.345Z,14.23
2019-02-16T22:13:38.702Z,14.19
2019-02-16T22:16:05.597Z,14.10
2019-02-16T22:18:32.528Z,14.05
2019-02-16T22:20:59.533Z,14.09
2019-02-16T22:23:26.802Z,14.08
2019-02-16T22:25:54.084Z,14.13
2019-02-16T22:28:30.527Z,14.12
2019-02-16T22:30:51.195Z,14.17
2019-02-16T22:33:18.103Z,14.05
2019-02-16T22:35:45.285Z,13.96
2019-02-16T22:38:12.584Z,13.85
2019-02-16T22:40:39.614Z,13.84
2019-02-16T22:43:06.486Z,13.84
2019-02-16T22:45:33.743Z,13.78
2019-02-16T22:48:00.721Z,13.69
2019-02-16T22:50:28.161Z,13.64
2019-02-16T22:52:55.201Z,13.66
2019-02-16T22:55:22.530Z,13.67
2019-02-16T22:57:49.783Z,13.65
2019-02-16T23:00:16.796Z,13.62
2019-02-16T23:02:45.362Z,13.56
2019-02-16T23:05:12.729Z,13.56
2019-02-16T23:07:40.025Z,13.59
2019-02-16T23:10:07.285Z,13.64
2019-02-16T23:12:36.045Z,13.69
2019-02-16T23:15:03.078Z,13.63
2019-02-16T23:17:31.586Z,13.62
2019-02-16T23:19:58.838Z,13.63
2019-02-16T23:22:25.986Z,13.63
2019-02-16T23:24:53.453Z,13.64
2019-02-16T23:27:20.725Z,13.64
2019-02-16T23:29:47.858Z,13.62
2019-02-16T23:32:14.737Z,13.64
2019-02-16T23:34:42.046Z,13.62
2019-02-16T23:37:09.012Z,13.60
2019-02-16T23:39:36.253Z,13.58
2019-02-16T23:42:03.497Z,13.56
2019-02-16T23:44:30.375Z,13.60
2019-02-16T23:46:57.691Z,13.63
2019-02-16T23:49:24.879Z,13.64
2019-02-16T23:51:51.854Z,13.63
2019-02-16T23:54:19.150Z,13.64
2019-02-16T23:56:46.077Z,13.61
2019-02-16T23:59:13.342Z,13.56
